< < Back
Terminal Aerodrome Forecast


Current Version              Previous Versions:   1  2  3  4  5  6  7  8  9  

Terminal Aerodrome Forecast

181
FTUS44 KMRX 310522
TAFCHA
TAF
KCHA 310522Z 3106/0106 00000KT P6SM SKC
     FM311700 01005KT P6SM VCTS SCT050CB
     FM010000 03004KT P6SM SCT250=

Latest METAR

015
SAUS80 KWBC 311600
MTRCHA
METAR KCHA 311553Z 00000KT 10SM SCT045 31/18 A3001 RMK AO2 SLP153
T03110183


USA.gov is the U.S. government's official web portal to all federal, state and local government web resources and services.